createdAt,value
2023-03-27T00:02:20.697Z,0.40
2023-03-27T00:07:23.362Z,1.03
2023-03-27T00:12:27.058Z,0.83
2023-03-27T00:17:30.396Z,0.50
2023-03-27T00:22:32.749Z,0.93
2023-03-27T00:27:36.286Z,2.23
2023-03-27T00:32:38.592Z,1.07
2023-03-27T00:37:41.059Z,0.50
2023-03-27T00:42:45.069Z,0.63
2023-03-27T00:47:49.281Z,0.53
2023-03-27T00:52:56.520Z,0.40
2023-03-27T00:58:05.459Z,2.77
2023-03-27T01:03:09.643Z,0.43
2023-03-27T01:08:13.098Z,3.33
2023-03-27T01:13:31.907Z,1.30
2023-03-27T01:18:43.515Z,2.10
2023-03-27T01:24:34.113Z,0.60
2023-03-27T01:29:48.554Z,0.40
2023-03-27T01:35:14.852Z,0.60
2023-03-27T01:40:22.492Z,0.87
2023-03-27T01:45:28.132Z,0.30
2023-03-27T01:50:35.126Z,1.93
2023-03-27T01:55:43.492Z,2.27
2023-03-27T02:00:50.985Z,1.47
2023-03-27T02:06:01.743Z,0.60
2023-03-27T02:11:05.858Z,4.03
2023-03-27T02:16:12.027Z,1.13
2023-03-27T02:21:14.529Z,1.90
2023-03-27T02:26:18.550Z,0.80
2023-03-27T02:31:35.031Z,0.60
2023-03-27T02:36:49.284Z,0.03
2023-03-27T02:42:01.278Z,0.33
2023-03-27T02:47:09.077Z,0.10
2023-03-27T02:52:14.575Z,0.30
2023-03-27T02:57:25.090Z,0.00
2023-03-27T03:02:34.184Z,0.53
2023-03-27T03:07:38.352Z,0.20
2023-03-27T03:12:41.500Z,0.20
2023-03-27T03:17:43.686Z,0.10
2023-03-27T03:22:46.249Z,0.10
2023-03-27T03:27:49.965Z,0.20
2023-03-27T03:32:53.029Z,0.73
2023-03-27T03:37:55.340Z,0.07
2023-03-27T03:42:59.242Z,0.33
2023-03-27T03:48:01.396Z,0.00
2023-03-27T03:53:03.214Z,0.43
2023-03-27T03:58:08.174Z,0.10
2023-03-27T04:03:11.378Z,0.10
2023-03-27T04:08:13.915Z,0.23
2023-03-27T04:13:17.855Z,0.40
2023-03-27T04:18:20.781Z,0.50
2023-03-27T04:23:23.182Z,0.80
2023-03-27T04:28:27.190Z,0.77
2023-03-27T04:33:30.640Z,1.10
2023-03-27T04:38:33.218Z,0.17
2023-03-27T04:43:40.242Z,0.40
2023-03-27T04:48:42.824Z,0.70
2023-03-27T04:53:44.899Z,1.17
2023-03-27T04:58:48.771Z,1.53
2023-03-27T05:03:50.870Z,2.77
2023-03-27T05:08:54.099Z,2.33
2023-03-27T05:13:57.347Z,1.70
2023-03-27T05:18:59.460Z,0.67
2023-03-27T05:24:01.511Z,0.53
2023-03-27T05:29:06.006Z,1.17
2023-03-27T05:34:08.170Z,2.53
2023-03-27T05:39:10.620Z,0.87
2023-03-27T05:44:14.323Z,2.63
2023-03-27T05:49:16.767Z,2.40
2023-03-27T05:54:19.091Z,1.20
2023-03-27T05:59:23.567Z,1.63
2023-03-27T06:04:25.705Z,1.90
2023-03-27T06:09:28.134Z,2.00
2023-03-27T06:14:32.164Z,2.00
2023-03-27T06:19:34.373Z,2.93
2023-03-27T06:24:36.804Z,1.47
2023-03-27T06:29:40.660Z,2.17
2023-03-27T06:34:43.013Z,2.50
2023-03-27T06:39:45.522Z,3.53
2023-03-27T06:44:49.228Z,3.13
2023-03-27T06:49:51.921Z,4.40
2023-03-27T06:54:54.007Z,7.23
2023-03-27T07:00:00.918Z,6.13
2023-03-27T07:05:05.413Z,10.23
2023-03-27T07:10:09.304Z,4.67
2023-03-27T07:15:13.584Z,3.37
2023-03-27T07:20:15.885Z,7.60
2023-03-27T07:25:18.207Z,6.93
2023-03-27T07:30:22.093Z,4.93
2023-03-27T07:35:24.286Z,6.07
2023-03-27T07:40:37.300Z,4.50
2023-03-27T07:45:43.950Z,5.43
2023-03-27T07:50:46.547Z,3.43
2023-03-27T07:55:48.760Z,7.17
2023-03-27T08:00:53.464Z,5.90
2023-03-27T08:05:56.771Z,11.07
2023-03-27T08:11:00.017Z,8.03
2023-03-27T08:16:09.866Z,8.83
2023-03-27T08:21:12.865Z,6.13
2023-03-27T08:26:16.202Z,6.97
2023-03-27T08:31:20.197Z,7.67
2023-03-27T08:36:23.242Z,5.60
2023-03-27T08:41:33.317Z,7.50
2023-03-27T08:46:42.309Z,7.37
2023-03-27T08:51:48.479Z,3.67
2023-03-27T08:56:51.145Z,4.47
2023-03-27T09:02:03.201Z,9.90
2023-03-27T09:07:09.598Z,4.77
2023-03-27T09:12:27.572Z,3.27
2023-03-27T09:17:37.730Z,5.97
2023-03-27T09:22:45.196Z,4.13
2023-03-27T09:27:49.872Z,4.20
2023-03-27T09:32:58.109Z,5.53
2023-03-27T09:38:04.126Z,7.07
2023-03-27T09:43:17.807Z,7.00
2023-03-27T09:48:29.904Z,7.10
2023-03-27T09:53:32.883Z,7.63
2023-03-27T09:58:40.352Z,8.30
2023-03-27T10:03:50.321Z,4.80
2023-03-27T10:08:52.677Z,7.97
2023-03-27T10:13:55.685Z,5.60
2023-03-27T10:19:01.720Z,8.73
2023-03-27T10:24:07.053Z,9.60
2023-03-27T10:29:26.138Z,7.27
2023-03-27T10:34:40.103Z,8.20
2023-03-27T10:39:45.137Z,8.53
2023-03-27T10:44:49.779Z,6.43
2023-03-27T10:50:03.997Z,8.03
2023-03-27T10:55:21.844Z,6.13
2023-03-27T11:00:40.030Z,7.53
2023-03-27T11:05:46.754Z,5.10
2023-03-27T11:10:49.639Z,5.23
2023-03-27T11:15:55.864Z,4.27
2023-03-27T11:21:02.735Z,7.73
2023-03-27T11:26:06.699Z,5.73
2023-03-27T11:31:14.646Z,4.17
2023-03-27T11:36:37.815Z,10.13
2023-03-27T11:41:40.246Z,4.20
2023-03-27T11:47:00.188Z,4.87
2023-03-27T11:52:16.014Z,4.03
2023-03-27T11:57:24.145Z,10.47
2023-03-27T12:02:49.472Z,6.93
2023-03-27T12:08:02.335Z,6.50
2023-03-27T12:14:01.010Z,9.07
2023-03-27T12:19:28.450Z,6.93
2023-03-27T12:24:57.185Z,6.67
2023-03-27T12:30:15.476Z,6.27
2023-03-27T12:35:21.329Z,7.00
2023-03-27T12:40:31.432Z,4.17
2023-03-27T12:45:38.744Z,7.13
2023-03-27T12:50:58.374Z,5.87
2023-03-27T12:56:39.773Z,8.47
2023-03-27T13:02:25.747Z,8.67
2023-03-27T13:07:37.384Z,3.90
2023-03-27T13:13:24.496Z,5.30
2023-03-27T13:18:42.597Z,4.57
2023-03-27T13:23:57.507Z,5.37
2023-03-27T13:29:00.485Z,8.20
2023-03-27T13:34:16.283Z,7.13
2023-03-27T13:39:24.991Z,5.53
2023-03-27T13:44:44.632Z,4.93
2023-03-27T13:50:07.542Z,5.90
2023-03-27T13:55:35.447Z,5.30
2023-03-27T14:01:14.222Z,3.90
2023-03-27T14:06:51.298Z,3.93
2023-03-27T14:12:07.759Z,6.70
2023-03-27T14:17:39.938Z,3.67
2023-03-27T14:22:53.743Z,5.73
2023-03-27T14:27:58.352Z,3.37
2023-03-27T14:33:09.469Z,5.07
2023-03-27T14:38:23.536Z,2.40
2023-03-27T14:43:28.555Z,3.50
2023-03-27T14:48:33.889Z,7.10
2023-03-27T14:53:44.730Z,4.10
2023-03-27T14:58:48.302Z,3.23
2023-03-27T15:03:53.184Z,6.40
2023-03-27T15:08:59.896Z,2.20
2023-03-27T15:14:02.682Z,4.67
2023-03-27T15:19:12.674Z,4.57
2023-03-27T15:24:20.528Z,3.20
2023-03-27T15:29:32.542Z,2.93
2023-03-27T15:34:46.259Z,6.93
2023-03-27T15:40:28.714Z,5.40
2023-03-27T15:45:40.056Z,2.43
2023-03-27T15:50:54.702Z,22.60
2023-03-27T15:55:59.351Z,5.80
2023-03-27T16:01:18.446Z,8.43
2023-03-27T16:06:30.910Z,3.53
2023-03-27T16:11:43.885Z,4.23
2023-03-27T16:16:46.221Z,2.90
2023-03-27T16:21:58.483Z,5.30
2023-03-27T16:27:03.195Z,2.63
2023-03-27T16:32:06.932Z,4.10
2023-03-27T16:37:09.113Z,5.70
2023-03-27T16:42:17.229Z,2.93
2023-03-27T16:47:20.746Z,5.00
2023-03-27T16:52:23.918Z,7.80
2023-03-27T16:57:28.613Z,5.10
2023-03-27T17:02:34.809Z,4.40
2023-03-27T17:07:41.965Z,4.37
2023-03-27T17:12:46.007Z,3.47
2023-03-27T17:17:50.405Z,8.67
2023-03-27T17:22:52.570Z,9.27
2023-03-27T17:27:56.334Z,5.33
2023-03-27T17:32:59.905Z,8.30
2023-03-27T17:38:02.582Z,7.53
2023-03-27T17:43:07.853Z,9.00
2023-03-27T17:48:12.741Z,7.27
2023-03-27T17:53:15.301Z,8.47
2023-03-27T17:58:22.858Z,10.00
2023-03-27T18:03:26.500Z,8.37
2023-03-27T18:08:30.723Z,9.27
2023-03-27T18:13:36.616Z,11.57
2023-03-27T18:18:41.699Z,8.90
2023-03-27T18:23:45.946Z,6.53
2023-03-27T18:28:53.464Z,6.10
2023-03-27T18:33:56.493Z,9.70
2023-03-27T18:38:59.908Z,5.57
2023-03-27T18:44:05.332Z,6.20
2023-03-27T18:49:17.838Z,7.57
2023-03-27T18:54:26.532Z,9.47
2023-03-27T18:59:32.200Z,9.27
2023-03-27T19:04:38.403Z,9.83
2023-03-27T19:09:42.156Z,5.47
2023-03-27T19:14:47.069Z,7.67
2023-03-27T19:19:51.811Z,11.17
2023-03-27T19:24:55.500Z,9.83
2023-03-27T19:30:00.867Z,5.60
2023-03-27T19:35:08.019Z,6.40
2023-03-27T19:40:14.995Z,6.87
2023-03-27T19:45:22.153Z,5.00
2023-03-27T19:50:26.135Z,6.27
2023-03-27T19:55:30.901Z,7.00
2023-03-27T20:00:53.353Z,5.93
2023-03-27T20:06:07.895Z,5.20
2023-03-27T20:11:13.726Z,5.40
2023-03-27T20:16:19.054Z,6.33
2023-03-27T20:21:25.085Z,3.73
2023-03-27T20:26:28.518Z,2.80
2023-03-27T20:31:32.950Z,4.47
2023-03-27T20:36:36.648Z,2.80
2023-03-27T20:41:39.360Z,5.87
2023-03-27T20:46:47.832Z,4.17
2023-03-27T20:51:51.395Z,4.97
2023-03-27T20:56:53.859Z,5.60
2023-03-27T21:01:58.028Z,3.43
2023-03-27T21:07:00.498Z,4.90
2023-03-27T21:12:03.356Z,6.20
2023-03-27T21:17:07.302Z,3.03
2023-03-27T21:22:09.260Z,2.33
2023-03-27T21:27:11.882Z,6.13
2023-03-27T21:32:16.187Z,4.00
2023-03-27T21:37:18.503Z,6.03
2023-03-27T21:42:22.808Z,6.07
2023-03-27T21:47:37.313Z,8.27
2023-03-27T21:52:47.012Z,3.87
2023-03-27T21:57:49.317Z,3.20
2023-03-27T22:02:54.277Z,5.20
2023-03-27T22:07:57.938Z,3.80
2023-03-27T22:13:00.376Z,3.10
2023-03-27T22:18:04.180Z,2.37
2023-03-27T22:23:06.627Z,2.27
2023-03-27T22:28:09.292Z,3.30
2023-03-27T22:33:13.128Z,3.63
2023-03-27T22:38:15.547Z,2.77
2023-03-27T22:43:23.263Z,4.63
2023-03-27T22:48:27.388Z,3.80
2023-03-27T22:53:31.991Z,2.77
2023-03-27T22:58:34.572Z,3.43
2023-03-27T23:03:38.448Z,7.13
2023-03-27T23:08:40.857Z,5.00
2023-03-27T23:13:43.148Z,3.67
2023-03-27T23:18:46.971Z,6.60
2023-03-27T23:23:48.949Z,4.47
2023-03-27T23:28:50.822Z,3.73
2023-03-27T23:33:54.520Z,4.77
2023-03-27T23:38:56.741Z,3.47
2023-03-27T23:43:58.992Z,3.67
2023-03-27T23:49:02.762Z,4.80
2023-03-27T23:54:05.302Z,4.23
2023-03-27T23:59:07.408Z,4.80
